createdAt,value
2019-06-15T00:00:46.329Z,1007.41
2019-06-15T00:01:46.290Z,1007.41
2019-06-15T00:02:46.243Z,1007.38
2019-06-15T00:03:46.199Z,1007.38
2019-06-15T00:04:46.157Z,1007.36
2019-06-15T00:05:46.110Z,1007.32
2019-06-15T00:06:46.072Z,1007.33
2019-06-15T00:07:46.026Z,1007.26
2019-06-15T00:08:45.991Z,1007.28
2019-06-15T00:09:45.941Z,1007.26
2019-06-15T00:10:45.895Z,1007.26
2019-06-15T00:11:45.920Z,1007.28
2019-06-15T00:12:45.819Z,1007.29
2019-06-15T00:13:45.811Z,1007.29
2019-06-15T00:14:45.726Z,1007.33
2019-06-15T00:15:45.683Z,1007.32
2019-06-15T00:16:45.640Z,1007.31
2019-06-15T00:17:45.595Z,1007.31
2019-06-15T00:18:45.553Z,1007.34
2019-06-15T00:19:45.524Z,1007.33
2019-06-15T00:20:45.463Z,1007.28
2019-06-15T00:21:45.425Z,1007.30
2019-06-15T00:22:45.405Z,1007.32
2019-06-15T00:23:45.358Z,1007.26
2019-06-15T00:24:45.293Z,1007.29
2019-06-15T00:25:45.245Z,1007.26
2019-06-15T00:26:45.226Z,1007.22
2019-06-15T00:27:45.160Z,1007.27
2019-06-15T00:28:45.115Z,1007.27
2019-06-15T00:29:45.075Z,1007.25
2019-06-15T00:30:45.029Z,1007.25
2019-06-15T00:31:44.987Z,1007.25
2019-06-15T00:32:44.944Z,1007.27
2019-06-15T00:33:44.900Z,1007.29
2019-06-15T00:34:44.858Z,1007.25
2019-06-15T00:35:44.819Z,1007.29
2019-06-15T00:36:44.773Z,1007.32
2019-06-15T00:37:44.724Z,1007.34
2019-06-15T00:38:44.682Z,1007.38
2019-06-15T00:39:44.643Z,1007.40
2019-06-15T00:40:44.615Z,1007.47
2019-06-15T00:41:44.563Z,1007.53
2019-06-15T00:42:44.511Z,1007.59
2019-06-15T00:43:44.480Z,1007.63
2019-06-15T00:44:44.587Z,1007.64
2019-06-15T00:45:44.376Z,1007.64
2019-06-15T00:46:44.339Z,1007.63
2019-06-15T00:47:44.294Z,1007.55
2019-06-15T00:48:44.246Z,1007.46
2019-06-15T00:49:44.212Z,1007.41
2019-06-15T00:50:44.166Z,1007.35
2019-06-15T00:51:44.123Z,1007.28
2019-06-15T00:52:44.082Z,1007.22
2019-06-15T00:53:44.033Z,1007.17
2019-06-15T00:54:50.379Z,1007.16
2019-06-15T00:55:43.947Z,1007.17
2019-06-15T00:56:43.905Z,1007.14
2019-06-15T00:57:43.859Z,1007.13
2019-06-15T00:58:43.823Z,1007.11
2019-06-15T00:59:43.772Z,1007.14
2019-06-15T01:00:43.738Z,1007.09
2019-06-15T01:01:43.692Z,1007.15
2019-06-15T01:02:43.642Z,1007.14
2019-06-15T01:03:43.596Z,1007.14
2019-06-15T01:04:43.649Z,1007.15
2019-06-15T01:05:43.519Z,1007.12
2019-06-15T01:06:43.470Z,1007.06
2019-06-15T01:07:43.422Z,1007.02
2019-06-15T01:08:43.382Z,1006.98
2019-06-15T01:09:43.339Z,1006.98
2019-06-15T01:10:43.295Z,1006.91
2019-06-15T01:11:43.256Z,1006.82
2019-06-15T01:12:43.226Z,1006.76
2019-06-15T01:13:43.164Z,1006.68
2019-06-15T01:14:43.121Z,1006.60
2019-06-15T01:15:43.076Z,1006.55
2019-06-15T01:16:43.033Z,1006.50
2019-06-15T01:17:42.991Z,1006.47
2019-06-15T01:18:42.958Z,1006.38
2019-06-15T01:19:42.905Z,1006.37
2019-06-15T01:20:42.865Z,1006.34
2019-06-15T01:21:42.814Z,1006.24
2019-06-15T01:22:42.773Z,1006.20
2019-06-15T01:23:42.731Z,1006.15
2019-06-15T01:24:42.686Z,1006.16
2019-06-15T01:25:42.642Z,1006.14
2019-06-15T01:26:42.602Z,1006.07
2019-06-15T01:27:42.555Z,1006.02
2019-06-15T01:28:42.512Z,1005.94
2019-06-15T01:29:42.678Z,1005.91
2019-06-15T01:30:42.425Z,1005.85
2019-06-15T01:31:42.380Z,1005.79
2019-06-15T01:32:42.339Z,1005.81
2019-06-15T01:33:42.294Z,1005.78
2019-06-15T01:34:42.249Z,1005.84
2019-06-15T01:35:42.208Z,1005.83
2019-06-15T01:36:42.234Z,1005.84
2019-06-15T01:37:42.119Z,1005.85
2019-06-15T01:38:42.105Z,1005.86
2019-06-15T01:39:42.031Z,1005.82
2019-06-15T01:40:41.989Z,1005.79
2019-06-15T01:41:41.979Z,1005.81
2019-06-15T01:42:41.904Z,1005.80
2019-06-15T01:43:41.859Z,1005.78
2019-06-15T01:44:41.812Z,1005.78
2019-06-15T01:45:44.674Z,1005.77
2019-06-15T01:46:41.729Z,1005.80
2019-06-15T01:47:41.682Z,1005.74
2019-06-15T01:48:41.666Z,1005.76
2019-06-15T01:49:41.605Z,1005.75
2019-06-15T01:50:41.555Z,1005.79
2019-06-15T01:51:41.509Z,1005.82
2019-06-15T01:52:41.468Z,1005.84
2019-06-15T01:53:41.422Z,1005.82
2019-06-15T01:54:41.380Z,1005.81
2019-06-15T01:55:41.336Z,1005.81
2019-06-15T01:56:41.362Z,1005.78
2019-06-15T01:57:41.282Z,1005.79
2019-06-15T01:58:41.218Z,1005.77
2019-06-15T01:59:41.161Z,1005.79
2019-06-15T02:00:41.120Z,1005.85
2019-06-15T02:01:41.071Z,1005.81
2019-06-15T02:02:41.031Z,1005.87
2019-06-15T02:03:40.984Z,1005.92
2019-06-15T02:04:40.940Z,1005.89
2019-06-15T02:05:40.895Z,1005.83
2019-06-15T02:06:40.857Z,1005.90
2019-06-15T02:07:40.815Z,1005.95
2019-06-15T02:08:40.770Z,1005.99
2019-06-15T02:09:40.730Z,1006.04
2019-06-15T02:10:40.737Z,1006.03
2019-06-15T02:11:40.635Z,1006.05
2019-06-15T02:12:40.615Z,1006.02
2019-06-15T02:13:40.556Z,1006.06
2019-06-15T02:14:40.506Z,1006.07
2019-06-15T02:15:40.466Z,1006.10
2019-06-15T02:16:40.418Z,1006.11
2019-06-15T02:17:40.376Z,1006.14
2019-06-15T02:18:40.333Z,1006.10
2019-06-15T02:19:40.287Z,1006.16
2019-06-15T02:20:40.243Z,1006.16
2019-06-15T02:21:40.203Z,1006.19
2019-06-15T02:22:40.158Z,1006.22
2019-06-15T02:23:40.117Z,1006.23
2019-06-15T02:24:40.077Z,1006.26
2019-06-15T02:25:40.031Z,1006.30
2019-06-15T02:26:39.992Z,1006.36
2019-06-15T02:27:39.959Z,1006.41
2019-06-15T02:28:39.894Z,1006.45
2019-06-15T02:29:39.852Z,1006.48
2019-06-15T02:30:39.813Z,1006.46
2019-06-15T02:31:39.763Z,1006.49
2019-06-15T02:32:39.719Z,1006.51
2019-06-15T02:33:39.683Z,1006.50
2019-06-15T02:34:39.645Z,1006.47
2019-06-15T02:35:39.587Z,1006.42
2019-06-15T02:36:39.555Z,1006.38
2019-06-15T02:37:39.501Z,1006.37
2019-06-15T02:38:39.461Z,1006.34
2019-06-15T02:39:39.422Z,1006.39
2019-06-15T02:40:39.371Z,1006.39
2019-06-15T02:41:39.326Z,1006.36
2019-06-15T02:42:39.290Z,1006.32
2019-06-15T02:43:39.241Z,1006.28
2019-06-15T02:44:39.198Z,1006.23
2019-06-15T02:45:39.150Z,1006.19
2019-06-15T02:46:39.113Z,1006.17
2019-06-15T02:47:39.064Z,1006.17
2019-06-15T02:48:39.022Z,1006.13
2019-06-15T02:49:38.985Z,1006.09
2019-06-15T02:50:38.934Z,1006.16
2019-06-15T02:51:38.891Z,1006.17
2019-06-15T02:52:38.890Z,1006.16
2019-06-15T02:53:38.803Z,1006.21
2019-06-15T02:54:38.762Z,1006.20
2019-06-15T02:55:50.198Z,1006.23
2019-06-15T02:56:38.679Z,1006.22
2019-06-15T02:57:38.629Z,1006.24
2019-06-15T02:58:38.643Z,1006.22
2019-06-15T02:59:38.548Z,1006.23
2019-06-15T03:00:38.497Z,1006.23
2019-06-15T03:01:38.461Z,1006.26
2019-06-15T03:02:38.412Z,1006.23
2019-06-15T03:03:38.370Z,1006.23
2019-06-15T03:04:38.320Z,1006.20
2019-06-15T03:05:38.299Z,1006.23
2019-06-15T03:06:38.234Z,1006.21
2019-06-15T03:07:38.198Z,1006.16
2019-06-15T03:08:38.148Z,1006.13
2019-06-15T03:09:38.103Z,1006.14
2019-06-15T03:10:38.063Z,1006.10
2019-06-15T03:11:38.015Z,1006.10
2019-06-15T03:12:37.976Z,1006.08
2019-06-15T03:13:37.931Z,1006.05
2019-06-15T03:14:37.884Z,1006.04
2019-06-15T03:15:37.843Z,1006.02
2019-06-15T03:16:37.797Z,1005.97
2019-06-15T03:17:37.817Z,1005.86
2019-06-15T03:18:37.708Z,1005.78
2019-06-15T03:19:37.668Z,1005.75
2019-06-15T03:20:37.621Z,1005.70
2019-06-15T03:21:37.585Z,1005.64
2019-06-15T03:22:37.541Z,1005.62
2019-06-15T03:23:37.492Z,1005.60
2019-06-15T03:24:37.453Z,1005.56
2019-06-15T03:25:37.405Z,1005.48
2019-06-15T03:26:37.362Z,1005.43
2019-06-15T03:27:37.318Z,1005.29
2019-06-15T03:28:37.272Z,1005.27
2019-06-15T03:29:37.229Z,1005.23
2019-06-15T03:30:37.186Z,1005.27
2019-06-15T03:31:37.141Z,1005.29
2019-06-15T03:32:37.098Z,1005.30
2019-06-15T03:33:37.056Z,1005.31
2019-06-15T03:34:37.074Z,1005.39
2019-06-15T03:35:36.968Z,1005.42
2019-06-15T03:36:36.922Z,1005.47
2019-06-15T03:37:36.887Z,1005.48
2019-06-15T03:38:36.849Z,1005.49
2019-06-15T03:39:36.792Z,1005.53
2019-06-15T03:40:36.750Z,1005.53
2019-06-15T03:41:36.702Z,1005.55
2019-06-15T03:42:36.663Z,1005.59
2019-06-15T03:43:36.615Z,1005.64
2019-06-15T03:44:36.571Z,1005.70
2019-06-15T03:45:36.553Z,1005.74
2019-06-15T03:46:36.490Z,1005.77
2019-06-15T03:47:36.441Z,1005.75
2019-06-15T03:48:36.400Z,1005.77
2019-06-15T03:49:36.355Z,1005.73
2019-06-15T03:50:36.309Z,1005.73
2019-06-15T03:51:36.269Z,1005.70
2019-06-15T03:52:36.221Z,1005.65
2019-06-15T03:53:36.179Z,1005.64
2019-06-15T03:54:36.134Z,1005.61
2019-06-15T03:55:36.123Z,1005.61
2019-06-15T03:56:36.046Z,1005.59
2019-06-15T03:57:36.014Z,1005.60
2019-06-15T03:58:35.961Z,1005.54
2019-06-15T03:59:35.917Z,1005.58
2019-06-15T04:00:35.873Z,1005.58
2019-06-15T04:01:35.831Z,1005.61
2019-06-15T04:02:35.784Z,1005.62
2019-06-15T04:03:35.739Z,1005.61
2019-06-15T04:04:35.697Z,1005.67
2019-06-15T04:05:35.655Z,1005.76
2019-06-15T04:06:35.609Z,1005.88
2019-06-15T04:07:35.566Z,1005.98
2019-06-15T04:08:35.521Z,1006.11
2019-06-15T04:09:35.477Z,1006.26
2019-06-15T04:10:35.485Z,1006.32
2019-06-15T04:11:35.390Z,1006.39
2019-06-15T04:12:35.345Z,1006.52
2019-06-15T04:13:35.302Z,1006.61
2019-06-15T04:14:35.258Z,1006.67
2019-06-15T04:15:35.218Z,1006.71
2019-06-15T04:16:35.175Z,1006.77
2019-06-15T04:17:35.128Z,1006.83
2019-06-15T04:18:35.090Z,1006.84
2019-06-15T04:19:35.044Z,1006.84
2019-06-15T04:20:35.001Z,1006.83
2019-06-15T04:21:34.953Z,1006.81
2019-06-15T04:22:34.919Z,1006.72
2019-06-15T04:23:34.863Z,1006.65
2019-06-15T04:24:34.823Z,1006.60
2019-06-15T04:25:34.781Z,1006.57
2019-06-15T04:26:36.281Z,1006.58
2019-06-15T04:27:34.693Z,1006.62
2019-06-15T04:28:34.647Z,1006.64
2019-06-15T04:29:34.604Z,1006.63
2019-06-15T04:30:34.568Z,1006.70
2019-06-15T04:31:34.521Z,1006.72
2019-06-15T04:33:34.428Z,1006.77
2019-06-15T04:34:34.384Z,1006.78
2019-06-15T04:35:34.342Z,1006.80
2019-06-15T04:36:34.301Z,1006.72
2019-06-15T04:37:34.252Z,1006.67
2019-06-15T04:38:34.210Z,1006.65
2019-06-15T04:39:34.164Z,1006.57
2019-06-15T04:40:34.123Z,1006.53
2019-06-15T04:41:34.078Z,1006.54
2019-06-15T04:42:34.042Z,1006.57
2019-06-15T04:43:33.991Z,1006.55
2019-06-15T04:44:33.948Z,1006.61
2019-06-15T04:45:33.903Z,1006.66
2019-06-15T04:46:33.860Z,1006.69
2019-06-15T04:47:33.817Z,1006.66
2019-06-15T04:48:33.772Z,1006.70
2019-06-15T04:49:33.734Z,1006.65
2019-06-15T04:50:33.690Z,1006.65
2019-06-15T04:51:33.648Z,1006.69
2019-06-15T04:52:33.597Z,1006.73
2019-06-15T04:53:33.554Z,1006.69
2019-06-15T04:54:33.512Z,1006.68
2019-06-15T04:55:33.463Z,1006.71
2019-06-15T04:56:33.422Z,1006.63
2019-06-15T04:57:33.392Z,1006.65
2019-06-15T04:58:33.411Z,1006.62
2019-06-15T04:59:33.292Z,1006.65
2019-06-15T05:00:33.249Z,1006.60
2019-06-15T05:01:33.199Z,1006.59
2019-06-15T05:02:33.162Z,1006.59
2019-06-15T05:03:33.117Z,1006.53
2019-06-15T05:04:33.069Z,1006.51
2019-06-15T05:05:33.026Z,1006.48
2019-06-15T05:06:32.984Z,1006.48
2019-06-15T05:07:32.945Z,1006.49
2019-06-15T05:08:32.895Z,1006.51
2019-06-15T05:09:32.852Z,1006.50
2019-06-15T05:10:32.811Z,1006.58
2019-06-15T05:11:32.767Z,1006.59
2019-06-15T05:12:32.726Z,1006.68
2019-06-15T05:13:32.684Z,1006.69
2019-06-15T05:14:32.638Z,1006.63
2019-06-15T05:15:32.594Z,1006.64
2019-06-15T05:16:32.554Z,1006.67
2019-06-15T05:17:32.503Z,1006.67
2019-06-15T05:18:32.462Z,1006.70
2019-06-15T05:19:32.414Z,1006.72
2019-06-15T05:20:32.372Z,1006.71
2019-06-15T05:21:32.354Z,1006.71
2019-06-15T05:22:32.310Z,1006.67
2019-06-15T05:23:32.247Z,1006.63
2019-06-15T05:24:32.198Z,1006.64
2019-06-15T05:25:32.154Z,1006.65
2019-06-15T05:26:32.113Z,1006.67
2019-06-15T05:27:32.068Z,1006.65
2019-06-15T05:28:32.020Z,1006.62
2019-06-15T05:29:31.978Z,1006.65
2019-06-15T05:30:31.932Z,1006.61
2019-06-15T05:31:31.893Z,1006.66
2019-06-15T05:32:31.854Z,1006.67
2019-06-15T05:33:31.842Z,1006.70
2019-06-15T05:34:31.786Z,1006.68
2019-06-15T05:35:31.753Z,1006.71
2019-06-15T05:36:31.678Z,1006.69
2019-06-15T05:37:31.632Z,1006.72
2019-06-15T05:38:31.583Z,1006.72
2019-06-15T05:39:31.546Z,1006.70
2019-06-15T05:40:31.498Z,1006.69
2019-06-15T05:41:31.458Z,1006.72
2019-06-15T05:42:31.413Z,1006.67
2019-06-15T05:43:31.367Z,1006.72
2019-06-15T05:44:31.323Z,1006.71
2019-06-15T05:45:31.284Z,1006.72
2019-06-15T05:46:31.241Z,1006.71
2019-06-15T05:47:31.196Z,1006.78
2019-06-15T05:48:31.150Z,1006.79
2019-06-15T05:50:17.102Z,1006.82
2019-06-15T05:51:17.063Z,1006.82
2019-06-15T05:52:17.066Z,1006.83
2019-06-15T05:53:16.965Z,1006.85
2019-06-15T05:54:16.933Z,1006.92
2019-06-15T05:55:16.899Z,1006.94
2019-06-15T05:56:16.849Z,1006.94
2019-06-15T05:57:21.737Z,1006.96
2019-06-15T05:58:16.752Z,1006.94
2019-06-15T05:59:16.708Z,1006.97
2019-06-15T06:00:16.866Z,1006.99
2019-06-15T06:01:16.619Z,1006.99
2019-06-15T06:02:16.579Z,1006.98
2019-06-15T06:03:16.542Z,1007.04
2019-06-15T06:04:16.484Z,1007.05
2019-06-15T06:05:16.443Z,1007.08
2019-06-15T06:06:16.402Z,1007.13
2019-06-15T06:07:16.353Z,1007.12
2019-06-15T06:08:16.311Z,1007.14
2019-06-15T06:09:16.270Z,1007.19
2019-06-15T06:10:16.225Z,1007.19
2019-06-15T06:11:16.179Z,1007.16
2019-06-15T06:12:16.134Z,1007.17
2019-06-15T06:13:16.091Z,1007.16
2019-06-15T06:14:16.047Z,1007.16
2019-06-15T06:15:16.005Z,1007.14
2019-06-15T06:16:15.961Z,1007.10
2019-06-15T06:17:15.919Z,1007.09
2019-06-15T06:18:15.871Z,1007.12
2019-06-15T06:19:15.832Z,1007.12
2019-06-15T06:20:15.784Z,1007.10
2019-06-15T06:21:15.741Z,1007.13
2019-06-15T06:22:15.697Z,1007.11
2019-06-15T06:23:15.655Z,1007.18
2019-06-15T06:24:15.607Z,1007.17
2019-06-15T06:25:15.573Z,1007.26
2019-06-15T06:26:15.525Z,1007.20
2019-06-15T06:27:15.480Z,1007.22
2019-06-15T06:28:15.434Z,1007.22
2019-06-15T06:29:15.396Z,1007.19
2019-06-15T06:30:15.347Z,1007.19
2019-06-15T06:31:15.306Z,1007.18
2019-06-15T06:32:15.259Z,1007.12
2019-06-15T06:33:15.219Z,1007.17
2019-06-15T06:34:15.174Z,1007.16
2019-06-15T06:35:15.129Z,1007.15
2019-06-15T06:36:15.082Z,1007.09
2019-06-15T06:37:15.039Z,1007.11
2019-06-15T06:38:14.996Z,1007.13
2019-06-15T06:39:14.952Z,1007.19
2019-06-15T06:40:14.913Z,1007.20
2019-06-15T06:41:14.866Z,1007.19
2019-06-15T06:42:14.825Z,1007.23
2019-06-15T06:43:14.777Z,1007.21
2019-06-15T06:44:14.733Z,1007.24
2019-06-15T06:45:14.695Z,1007.27
2019-06-15T06:46:14.652Z,1007.29
2019-06-15T06:47:14.601Z,1007.32
2019-06-15T06:49:14.520Z,1007.44
2019-06-15T06:50:14.469Z,1007.42
2019-06-15T06:51:14.424Z,1007.44
2019-06-15T06:52:14.392Z,1007.44
2019-06-15T06:53:14.339Z,1007.44
2019-06-15T06:54:14.293Z,1007.49
2019-06-15T06:55:14.251Z,1007.47
2019-06-15T06:56:14.207Z,1007.49
2019-06-15T06:57:14.164Z,1007.49
2019-06-15T06:58:14.120Z,1007.53
2019-06-15T06:59:14.077Z,1007.56
2019-06-15T07:00:14.035Z,1007.54
2019-06-15T07:01:13.990Z,1007.52
2019-06-15T07:02:13.951Z,1007.51
2019-06-15T07:03:13.899Z,1007.53
2019-06-15T07:04:13.860Z,1007.55
2019-06-15T07:05:13.813Z,1007.50
2019-06-15T07:06:13.769Z,1007.52
2019-06-15T07:07:13.728Z,1007.52
2019-06-15T07:08:13.681Z,1007.53
2019-06-15T07:09:13.640Z,1007.53
2019-06-15T07:10:13.599Z,1007.59
2019-06-15T07:11:13.566Z,1007.60
2019-06-15T07:12:13.515Z,1007.59
2019-06-15T07:13:13.471Z,1007.66
2019-06-15T07:14:13.424Z,1007.65
2019-06-15T07:15:13.377Z,1007.68
2019-06-15T07:16:13.533Z,1007.67
2019-06-15T07:17:13.296Z,1007.71
2019-06-15T07:18:13.244Z,1007.71
2019-06-15T07:19:13.202Z,1007.65
2019-06-15T07:20:13.172Z,1007.68
2019-06-15T07:22:13.073Z,1007.72
2019-06-15T07:23:13.033Z,1007.74
2019-06-15T07:24:12.992Z,1007.74
2019-06-15T07:25:12.983Z,1007.75
2019-06-15T07:26:12.898Z,1007.76
2019-06-15T07:27:12.856Z,1007.75
2019-06-15T07:28:12.809Z,1007.73
2019-06-15T07:29:12.766Z,1007.69
2019-06-15T07:30:12.723Z,1007.71
2019-06-15T07:31:12.682Z,1007.69
2019-06-15T07:32:12.637Z,1007.69
2019-06-15T07:33:12.592Z,1007.65
2019-06-15T07:34:12.550Z,1007.65
2019-06-15T07:35:12.503Z,1007.63
2019-06-15T07:36:12.465Z,1007.60
2019-06-15T07:37:12.433Z,1007.63
2019-06-15T07:38:12.375Z,1007.62
2019-06-15T07:39:12.336Z,1007.56
2019-06-15T07:40:12.290Z,1007.56
2019-06-15T07:41:12.248Z,1007.54
2019-06-15T07:42:12.201Z,1007.48
2019-06-15T07:43:12.160Z,1007.51
2019-06-15T07:44:12.123Z,1007.51
2019-06-15T07:45:12.073Z,1007.56
2019-06-15T07:46:12.027Z,1007.48
2019-06-15T07:47:12.006Z,1007.51
2019-06-15T07:48:11.948Z,1007.50
2019-06-15T07:49:11.902Z,1007.45
2019-06-15T07:50:11.853Z,1007.44
2019-06-15T07:51:12.425Z,1007.46
2019-06-15T07:52:11.773Z,1007.44
2019-06-15T07:53:11.723Z,1007.49
2019-06-15T07:54:11.681Z,1007.47
2019-06-15T07:55:11.642Z,1007.49
2019-06-15T07:56:11.607Z,1007.50
2019-06-15T07:57:11.550Z,1007.52
2019-06-15T07:58:24.318Z,1007.52
2019-06-15T07:59:11.466Z,1007.53
2019-06-15T08:00:11.425Z,1007.54
2019-06-15T08:01:11.379Z,1007.50
2019-06-15T08:02:11.348Z,1007.49
2019-06-15T08:03:11.293Z,1007.52
2019-06-15T08:04:11.278Z,1007.52
2019-06-15T08:05:11.209Z,1007.45
2019-06-15T08:06:11.168Z,1007.42
2019-06-15T08:07:11.124Z,1007.47
2019-06-15T08:08:11.126Z,1007.54
2019-06-15T08:09:11.056Z,1007.54
2019-06-15T08:10:11.008Z,1007.56
2019-06-15T08:11:10.951Z,1007.57
2019-06-15T08:12:10.914Z,1007.59
2019-06-15T08:13:10.914Z,1007.65
2019-06-15T08:14:10.820Z,1007.63
2019-06-15T08:15:10.777Z,1007.65
2019-06-15T08:16:10.737Z,1007.69
2019-06-15T08:17:10.694Z,1007.61
2019-06-15T08:18:10.648Z,1007.65
2019-06-15T08:20:10.562Z,1007.72
2019-06-15T08:21:10.525Z,1007.77
2019-06-15T08:22:10.477Z,1007.75
2019-06-15T08:23:10.437Z,1007.78
2019-06-15T08:24:10.395Z,1007.79
2019-06-15T08:25:10.352Z,1007.81
2019-06-15T08:26:10.305Z,1007.85
2019-06-15T08:27:10.266Z,1007.89
2019-06-15T08:28:10.221Z,1007.91
2019-06-15T08:29:10.179Z,1008.00
2019-06-15T08:30:10.139Z,1008.02
2019-06-15T08:31:10.099Z,1007.96
2019-06-15T08:32:10.053Z,1008.11
2019-06-15T08:33:10.020Z,1008.14
2019-06-15T08:34:09.975Z,1008.06
2019-06-15T08:35:09.924Z,1008.04
2019-06-15T08:36:09.907Z,1008.12
2019-06-15T08:37:09.839Z,1008.11
2019-06-15T08:38:09.802Z,1008.06
2019-06-15T08:39:09.754Z,1008.10
2019-06-15T08:40:09.744Z,1008.12
2019-06-15T08:41:09.669Z,1008.09
2019-06-15T08:42:09.627Z,1008.14
2019-06-15T08:43:09.590Z,1008.16
2019-06-15T08:44:09.539Z,1008.14
2019-06-15T08:45:09.497Z,1008.15
2019-06-15T08:46:09.455Z,1008.17
2019-06-15T08:47:09.508Z,1008.18
2019-06-15T08:48:09.368Z,1008.11
2019-06-15T08:49:09.326Z,1008.16
2019-06-15T08:50:09.283Z,1008.16
2019-06-15T08:51:09.241Z,1008.18
2019-06-15T08:52:09.200Z,1008.20
2019-06-15T08:53:09.162Z,1008.21
2019-06-15T08:54:09.110Z,1008.22
2019-06-15T08:55:09.071Z,1008.24
2019-06-15T08:56:09.024Z,1008.25
2019-06-15T08:57:08.980Z,1008.24
2019-06-15T08:58:08.939Z,1008.25
2019-06-15T08:59:08.896Z,1008.23
2019-06-15T09:00:08.856Z,1008.31
2019-06-15T09:01:08.808Z,1008.22
2019-06-15T09:02:08.768Z,1008.32
2019-06-15T09:03:08.727Z,1008.35
2019-06-15T09:04:08.683Z,1008.37
2019-06-15T09:05:08.642Z,1008.38
2019-06-15T09:06:08.596Z,1008.38
2019-06-15T09:07:08.555Z,1008.42
2019-06-15T09:08:08.508Z,1008.45
2019-06-15T09:09:08.467Z,1008.44
2019-06-15T09:10:08.426Z,1008.51
2019-06-15T09:11:08.417Z,1008.54
2019-06-15T09:12:08.339Z,1008.59
2019-06-15T09:13:08.291Z,1008.61
2019-06-15T09:14:08.252Z,1008.66
2019-06-15T09:15:08.212Z,1008.71
2019-06-15T09:16:08.162Z,1008.73
2019-06-15T09:17:08.119Z,1008.73
2019-06-15T09:18:08.100Z,1008.75
2019-06-15T09:19:08.035Z,1008.74
2019-06-15T09:20:08.061Z,1008.73
2019-06-15T09:21:07.951Z,1008.72
2019-06-15T09:22:07.904Z,1008.78
2019-06-15T09:23:07.864Z,1008.77
2019-06-15T09:24:07.820Z,1008.76
2019-06-15T09:25:07.779Z,1008.76
2019-06-15T09:26:07.734Z,1008.78
2019-06-15T09:27:07.689Z,1008.84
2019-06-15T09:28:07.644Z,1008.81
2019-06-15T09:29:11.153Z,1008.76
2019-06-15T09:30:07.561Z,1008.81
2019-06-15T09:31:07.518Z,1008.85
2019-06-15T09:32:07.469Z,1008.79
2019-06-15T09:33:07.428Z,1008.83
2019-06-15T09:34:18.645Z,1008.86
2019-06-15T09:35:07.346Z,1008.82
2019-06-15T09:36:07.297Z,1008.88
2019-06-15T09:37:07.257Z,1008.91
2019-06-15T09:38:07.213Z,1008.92
2019-06-15T09:39:07.170Z,1008.95
2019-06-15T09:40:07.127Z,1008.96
2019-06-15T09:41:07.085Z,1008.97
2019-06-15T09:42:07.040Z,1009.04
2019-06-15T09:43:06.993Z,1009.07
2019-06-15T09:44:06.954Z,1009.04
2019-06-15T09:45:06.908Z,1009.06
2019-06-15T09:46:06.864Z,1009.06
2019-06-15T09:47:06.819Z,1009.11
2019-06-15T09:48:06.775Z,1009.17
2019-06-15T09:49:06.747Z,1009.15
2019-06-15T09:50:06.689Z,1009.15
2019-06-15T09:51:06.678Z,1009.22
2019-06-15T09:52:06.600Z,1009.22
2019-06-15T09:53:06.571Z,1009.27
2019-06-15T09:54:06.518Z,1009.23
2019-06-15T09:55:06.471Z,1009.29
2019-06-15T09:56:06.436Z,1009.25
2019-06-15T09:57:06.388Z,1009.30
2019-06-15T09:58:06.344Z,1009.29
2019-06-15T09:59:06.299Z,1009.33
2019-06-15T10:00:06.253Z,1009.35
2019-06-15T10:01:06.211Z,1009.38
2019-06-15T10:02:06.177Z,1009.38
2019-06-15T10:03:06.129Z,1009.43
2019-06-15T10:04:06.084Z,1009.42
2019-06-15T10:05:06.036Z,1009.46
2019-06-15T10:06:06.006Z,1009.44
2019-06-15T10:07:05.954Z,1009.46
2019-06-15T10:08:05.909Z,1009.50
2019-06-15T10:09:05.867Z,1009.57
2019-06-15T10:10:05.827Z,1009.52
2019-06-15T10:11:05.788Z,1009.52
2019-06-15T10:12:05.741Z,1009.56
2019-06-15T10:13:05.695Z,1009.63
2019-06-15T10:14:05.652Z,1009.66
2019-06-15T10:15:05.605Z,1009.70
2019-06-15T10:16:05.567Z,1009.67
2019-06-15T10:17:05.526Z,1009.69
2019-06-15T10:18:05.477Z,1009.76
2019-06-15T10:19:05.435Z,1009.74
2019-06-15T10:20:05.409Z,1009.78
2019-06-15T10:21:05.354Z,1009.75
2019-06-15T10:22:05.306Z,1009.75
2019-06-15T10:23:05.264Z,1009.83
2019-06-15T10:24:05.220Z,1009.79
2019-06-15T10:25:05.177Z,1009.78
2019-06-15T10:26:05.134Z,1009.78
2019-06-15T10:27:05.096Z,1009.84
2019-06-15T10:28:05.051Z,1009.88
2019-06-15T10:29:05.008Z,1009.87
2019-06-15T10:30:04.968Z,1009.87
2019-06-15T10:31:04.932Z,1009.93
2019-06-15T10:32:04.890Z,1009.91
2019-06-15T10:33:04.837Z,1009.93
2019-06-15T10:34:04.853Z,1009.89
2019-06-15T10:35:04.750Z,1009.98
2019-06-15T10:36:04.713Z,1009.95
2019-06-15T10:37:04.665Z,1009.99
2019-06-15T10:38:04.622Z,1010.01
2019-06-15T10:39:04.580Z,1010.04
2019-06-15T10:40:04.540Z,1010.02
2019-06-15T10:41:04.498Z,1009.99
2019-06-15T10:42:04.451Z,1010.02
2019-06-15T10:43:04.412Z,1010.02
2019-06-15T10:44:04.365Z,1010.07
2019-06-15T10:45:04.323Z,1010.08
2019-06-15T10:46:04.282Z,1010.12
2019-06-15T10:47:04.241Z,1010.10
2019-06-15T10:48:04.202Z,1010.22
2019-06-15T10:49:04.154Z,1010.32
2019-06-15T10:50:04.113Z,1010.30
2019-06-15T10:51:04.067Z,1010.35
2019-06-15T10:53:04.011Z,1010.28
2019-06-15T10:54:03.955Z,1010.31
2019-06-15T10:55:03.923Z,1010.34
2019-06-15T10:56:03.857Z,1010.46
2019-06-15T10:57:03.820Z,1010.39
2019-06-15T10:58:03.775Z,1010.37
2019-06-15T10:59:03.734Z,1010.40
2019-06-15T11:00:03.692Z,1010.38
2019-06-15T11:01:03.649Z,1010.35
2019-06-15T11:02:03.606Z,1010.37
2019-06-15T11:03:03.562Z,1010.50
2019-06-15T11:04:03.521Z,1010.43
2019-06-15T11:05:03.478Z,1010.44
2019-06-15T11:06:03.435Z,1010.47
2019-06-15T11:07:03.397Z,1010.36
2019-06-15T11:08:03.353Z,1010.41
2019-06-15T11:13:17.666Z,1010.44
2019-06-15T11:14:17.627Z,1010.50
2019-06-15T11:15:17.582Z,1010.50
2019-06-15T11:16:17.539Z,1010.50
2019-06-15T11:17:17.499Z,1010.55
2019-06-15T11:18:17.457Z,1010.63
2019-06-15T11:19:17.416Z,1010.58
2019-06-15T11:20:17.376Z,1010.62
2019-06-15T11:21:17.337Z,1010.64
2019-06-15T11:22:17.292Z,1010.65
2019-06-15T11:23:17.248Z,1010.70
2019-06-15T11:24:17.212Z,1010.72
2019-06-15T11:25:17.169Z,1010.78
2019-06-15T11:26:17.127Z,1010.75
2019-06-15T11:27:59.479Z,1010.81
2019-06-15T11:28:59.435Z,1010.76
2019-06-15T11:30:12.555Z,1010.89
2019-06-15T11:30:59.349Z,1010.89
2019-06-15T11:31:59.306Z,1010.94
2019-06-15T11:32:59.268Z,1010.92
2019-06-15T11:33:59.326Z,1010.96
2019-06-15T11:34:59.184Z,1010.94
2019-06-15T11:35:59.153Z,1010.93
2019-06-15T11:36:59.107Z,1010.92
2019-06-15T11:37:59.060Z,1010.84
2019-06-15T11:38:59.018Z,1010.90
2019-06-15T11:39:58.978Z,1010.90
2019-06-15T11:40:58.946Z,1010.95
2019-06-15T11:41:58.894Z,1010.95
2019-06-15T11:42:58.858Z,1010.96
2019-06-15T11:43:58.812Z,1011.02
2019-06-15T11:44:58.769Z,1010.99
2019-06-15T11:45:58.726Z,1010.98
2019-06-15T11:46:58.684Z,1011.01
2019-06-15T11:47:58.644Z,1010.96
2019-06-15T11:48:58.602Z,1011.03
2019-06-15T11:49:58.562Z,1011.05
2019-06-15T11:50:58.523Z,1011.07
2019-06-15T11:51:58.478Z,1011.08
2019-06-15T11:52:58.439Z,1011.06
2019-06-15T11:53:58.397Z,1011.08
2019-06-15T11:54:58.358Z,1011.12
2019-06-15T11:55:58.310Z,1011.02
2019-06-15T11:56:58.272Z,1011.10
2019-06-15T11:57:58.254Z,1011.14
2019-06-15T11:58:58.188Z,1011.13
2019-06-15T11:59:58.173Z,1011.09
2019-06-15T12:00:58.110Z,1011.19
2019-06-15T12:01:58.062Z,1011.21
2019-06-15T12:02:58.027Z,1011.17
2019-06-15T12:03:57.979Z,1011.20
2019-06-15T12:04:58.897Z,1011.24
2019-06-15T12:05:57.899Z,1011.24
2019-06-15T12:06:57.856Z,1011.19
2019-06-15T12:07:57.823Z,1011.29
2019-06-15T12:08:57.777Z,1011.26
2019-06-15T12:09:57.730Z,1011.25
2019-06-15T12:10:57.727Z,1011.26
2019-06-15T12:11:57.652Z,1011.25
2019-06-15T12:12:57.610Z,1011.27
2019-06-15T12:13:57.566Z,1011.27
2019-06-15T12:14:57.531Z,1011.32
2019-06-15T12:15:57.485Z,1011.28